This is the latest recevied weather packets stored in our database for station/object YN1JLX-13. If no packets are shown the sender has not sent any weather packets the latest 10 day(s).
| Time | Temp. | Humidity | Pressure | Rain* | Wind** | Luminosity | Snow |
|---|---|---|---|---|---|---|---|
| 1778348301 | 24.44° C | 52% | 1010 hPa | 0 mm | - | - | - |
| 1778347700 | 25.56° C | 52% | 1010 hPa | 0 mm | - | - | - |
| 1778347100 | 25° C | 50% | 1010 hPa | 0 mm | - | - | - |
| 1778346500 | 25.56° C | 50% | 1010 hPa | 0 mm | - | - | - |
| 1778345899 | 26.67° C | 49% | 1010 hPa | 0 mm | - | - | - |
| 1778345299 | 27.78° C | 49% | 1010 hPa | 0 mm | - | - | - |
| 1778344698 | 23.33° C | 55% | 1011 hPa | 0 mm | - | - | - |
| 1778343498 | 24.44° C | 55% | 1011 hPa | 0 mm | - | - | - |
| 1778342897 | 25° C | 55% | 1011 hPa | 0 mm | - | - | - |
| 1778342297 | 26.11° C | 55% | 1011 hPa | 0 mm | - | - | - |
| 1778341696 | 22.78° C | 59% | 1011 hPa | 0 mm | - | - | - |
| 1778341096 | 23.89° C | 59% | 1011 hPa | 0 mm | - | - | - |
| 1778340495 | 22.22° C | 59% | 1011 hPa | 0 mm | - | - | - |
| 1778339895 | 23.33° C | 59% | 1011 hPa | 0 mm | - | - | - |
| 1778339295 | 22.78° C | 58% | 1011 hPa | 0 mm | - | - | - |
| 1778338695 | 23.89° C | 58% | 1011 hPa | 0 mm | - | - | - |
| 1778338095 | 25° C | 58% | 1011 hPa | 0 mm | - | - | - |
| 1778337495 | 21.11° C | 66% | 1011 hPa | 0 mm | - | - | - |
| 1778336894 | 21.67° C | 73% | 1011 hPa | 0 mm | - | - | - |
| 1778336294 | 21.11° C | 74% | 1011 hPa | 0 mm | - | - | - |
| 1778335693 | 21.11° C | 74% | 1011 hPa | 0 mm | - | - | - |
| 1778335093 | 21.67° C | 74% | 1011 hPa | 0 mm | - | - | - |
| 1778334493 | 21.67° C | 74% | 1011 hPa | 0 mm | - | - | - |
| 1778333892 | 19.44° C | 72% | 1011 hPa | 0 mm | - | - | - |
| 1778333291 | 19.44° C | 77% | 1011 hPa | 0 mm | - | - | - |
* Rain latest hour (hover to see other rain measurements)
** Current wind speed in m/s (hover to see current wind gust speed)